createdAt,value
2023-01-07T00:00:09.536Z,1.40
2023-01-07T00:03:00.882Z,1.40
2023-01-07T00:05:29.991Z,1.36
2023-01-07T00:07:59.809Z,1.34
2023-01-07T00:10:28.381Z,1.42
2023-01-07T00:12:58.363Z,1.49
2023-01-07T00:15:27.542Z,1.55
2023-01-07T00:17:56.225Z,1.58
2023-01-07T00:20:27.766Z,1.55
2023-01-07T00:22:56.481Z,1.56
2023-01-07T00:25:25.079Z,1.55
2023-01-07T00:27:53.973Z,1.55
2023-01-07T00:30:23.237Z,1.57
2023-01-07T00:32:59.319Z,1.60
2023-01-07T00:35:29.439Z,1.63
2023-01-07T00:38:01.786Z,1.59
2023-01-07T00:40:35.196Z,1.53
2023-01-07T00:43:06.473Z,1.50
2023-01-07T00:45:38.840Z,1.50
2023-01-07T00:48:09.662Z,1.52
2023-01-07T00:50:39.233Z,1.58
2023-01-07T00:53:15.419Z,1.58
2023-01-07T00:55:45.045Z,1.60
2023-01-07T00:58:16.288Z,1.64
2023-01-07T01:00:45.310Z,1.69
2023-01-07T01:03:15.096Z,1.74
2023-01-07T01:05:43.800Z,1.73
2023-01-07T01:08:23.023Z,1.73
2023-01-07T01:10:50.777Z,1.75
2023-01-07T01:13:19.439Z,1.72
2023-01-07T01:15:51.216Z,1.74
2023-01-07T01:18:20.420Z,1.77
2023-01-07T01:20:50.214Z,1.76
2023-01-07T01:23:19.029Z,1.74
2023-01-07T01:25:50.483Z,1.72
2023-01-07T01:28:20.218Z,1.71
2023-01-07T01:30:58.968Z,1.73
2023-01-07T01:33:29.666Z,1.76
2023-01-07T01:35:59.798Z,1.80
2023-01-07T01:38:29.653Z,1.83
2023-01-07T01:40:59.134Z,1.87
2023-01-07T01:43:36.987Z,1.95
2023-01-07T01:46:11.656Z,2.04
2023-01-07T01:48:46.329Z,2.06
2023-01-07T01:51:21.924Z,2.10
2023-01-07T01:53:54.258Z,2.13
2023-01-07T01:56:27.555Z,2.18
2023-01-07T01:59:03.932Z,2.21
2023-01-07T02:01:40.446Z,2.27
2023-01-07T02:04:16.491Z,2.31
2023-01-07T02:06:50.694Z,2.30
2023-01-07T02:09:19.839Z,2.29
2023-01-07T02:11:59.922Z,2.30
2023-01-07T02:14:57.431Z,2.30
2023-01-07T02:17:35.533Z,2.29
2023-01-07T02:20:23.645Z,2.31
2023-01-07T02:23:16.320Z,2.31
2023-01-07T02:26:16.921Z,2.28
2023-01-07T02:29:14.061Z,2.24
2023-01-07T02:32:04.828Z,2.21
2023-01-07T02:34:43.611Z,2.17
2023-01-07T02:37:29.225Z,2.17
2023-01-07T02:40:11.136Z,2.15
2023-01-07T02:42:49.805Z,2.14
2023-01-07T02:45:27.509Z,2.17
2023-01-07T02:48:01.728Z,2.27
2023-01-07T02:50:33.388Z,2.38
2023-01-07T02:53:09.959Z,2.52
2023-01-07T02:55:53.272Z,2.59
2023-01-07T02:58:50.428Z,2.62
2023-01-07T03:01:49.760Z,2.63
2023-01-07T03:04:36.799Z,2.64
2023-01-07T03:07:33.355Z,2.62
2023-01-07T03:10:11.249Z,2.53
2023-01-07T03:12:46.122Z,2.52
2023-01-07T03:15:20.646Z,2.49
2023-01-07T03:17:55.173Z,2.52
2023-01-07T03:20:26.932Z,2.59
2023-01-07T03:22:58.268Z,2.63
2023-01-07T03:25:30.821Z,2.66
2023-01-07T03:28:11.013Z,2.59
2023-01-07T03:30:40.630Z,2.50
2023-01-07T03:33:17.194Z,2.47
2023-01-07T03:35:50.413Z,2.45
2023-01-07T03:38:23.321Z,2.44
2023-01-07T03:40:52.842Z,2.41
2023-01-07T03:43:23.399Z,2.38
2023-01-07T03:45:54.301Z,2.40
2023-01-07T03:48:23.961Z,2.43
2023-01-07T03:50:53.256Z,2.48
2023-01-07T03:53:22.320Z,2.53
2023-01-07T03:55:54.388Z,2.59
2023-01-07T03:58:23.375Z,2.64
2023-01-07T04:00:55.484Z,2.71
2023-01-07T04:03:24.564Z,2.75
2023-01-07T04:05:53.329Z,2.77
2023-01-07T04:08:22.863Z,2.79
2023-01-07T04:10:52.185Z,2.82
2023-01-07T04:13:21.289Z,2.82
2023-01-07T04:15:54.536Z,2.74
2023-01-07T04:18:24.871Z,2.69
2023-01-07T04:20:56.395Z,2.66
2023-01-07T04:23:25.929Z,2.67
2023-01-07T04:25:56.742Z,2.67
2023-01-07T04:28:26.498Z,2.68
2023-01-07T04:30:58.341Z,2.71
2023-01-07T04:33:27.479Z,2.74
2023-01-07T04:36:02.474Z,2.65
2023-01-07T04:38:32.079Z,2.57
2023-01-07T04:41:01.445Z,2.49
2023-01-07T04:43:32.860Z,2.50
2023-01-07T04:49:13.182Z,2.45
2023-01-07T04:51:42.636Z,2.45
2023-01-07T04:54:11.849Z,2.36
2023-01-07T04:56:40.842Z,2.40
2023-01-07T04:59:10.106Z,2.48
2023-01-07T05:01:46.871Z,2.52
2023-01-07T05:04:18.622Z,2.58
2023-01-07T05:06:47.835Z,2.63
2023-01-07T05:09:17.794Z,2.65
2023-01-07T05:11:47.302Z,2.68
2023-01-07T05:14:19.002Z,2.67
2023-01-07T05:16:49.128Z,2.59
2023-01-07T05:19:21.620Z,2.56
2023-01-07T05:21:54.281Z,2.52
2023-01-07T05:24:23.724Z,2.56
2023-01-07T05:26:55.853Z,2.55
2023-01-07T05:29:25.395Z,2.55
2023-01-07T05:31:54.675Z,2.64
2023-01-07T05:34:30.904Z,2.72
2023-01-07T05:37:00.093Z,2.75
2023-01-07T05:39:29.343Z,2.63
2023-01-07T05:42:23.184Z,2.58
2023-01-07T05:44:53.445Z,2.61
2023-01-07T05:47:28.338Z,2.62
2023-01-07T05:50:00.135Z,2.64
2023-01-07T05:52:29.537Z,2.66
2023-01-07T05:54:58.727Z,2.70
2023-01-07T05:57:51.938Z,2.75
2023-01-07T06:00:30.810Z,2.80
2023-01-07T06:03:00.141Z,2.85
2023-01-07T06:05:38.138Z,2.90
2023-01-07T06:08:09.212Z,2.95
2023-01-07T06:10:41.861Z,2.97
2023-01-07T06:13:12.395Z,2.94
2023-01-07T06:18:42.264Z,2.72
2023-01-07T06:21:11.561Z,2.76
2023-01-07T06:23:45.323Z,2.80
2023-01-07T06:26:14.577Z,2.85
2023-01-07T06:28:48.739Z,2.89
2023-01-07T06:31:27.784Z,2.95
2023-01-07T06:33:57.349Z,2.95
2023-01-07T06:36:26.331Z,2.98
2023-01-07T06:38:55.697Z,3.01
2023-01-07T06:41:26.086Z,3.04
2023-01-07T06:44:00.884Z,3.03
2023-01-07T06:46:31.054Z,2.98
2023-01-07T06:49:01.216Z,2.92
2023-01-07T06:54:19.427Z,2.79
2023-01-07T06:59:53.831Z,2.64
2023-01-07T07:02:28.410Z,2.62
2023-01-07T07:04:57.600Z,2.67
2023-01-07T07:07:57.811Z,2.71
2023-01-07T07:10:26.811Z,2.69
2023-01-07T07:12:55.981Z,2.73
2023-01-07T07:15:24.868Z,2.83
2023-01-07T07:17:53.694Z,2.90
2023-01-07T07:20:22.786Z,2.97
2023-01-07T07:22:52.963Z,2.97
2023-01-07T07:25:38.798Z,3.00
2023-01-07T07:28:07.930Z,3.00
2023-01-07T07:31:01.295Z,3.05
2023-01-07T07:33:53.491Z,3.10
2023-01-07T07:36:25.051Z,3.18
2023-01-07T07:38:54.969Z,3.17
2023-01-07T07:41:24.045Z,3.22
2023-01-07T07:43:58.589Z,3.31
2023-01-07T07:46:36.260Z,3.42
2023-01-07T07:49:17.895Z,3.51
2023-01-07T07:51:57.831Z,3.64
2023-01-07T07:54:35.212Z,3.74
2023-01-07T07:57:06.321Z,3.83
2023-01-07T07:59:35.411Z,3.93
2023-01-07T08:02:04.898Z,4.02
2023-01-07T08:04:34.386Z,4.03
2023-01-07T08:07:03.392Z,4.09
2023-01-07T08:09:32.549Z,4.10
2023-01-07T08:12:03.103Z,4.06
2023-01-07T08:14:32.496Z,4.05
2023-01-07T08:17:01.269Z,4.01
2023-01-07T08:19:30.264Z,4.05
2023-01-07T08:21:59.930Z,4.17
2023-01-07T08:24:29.173Z,4.29
2023-01-07T08:26:58.077Z,4.39
2023-01-07T08:29:27.383Z,4.47
2023-01-07T08:31:56.275Z,4.58
2023-01-07T08:34:27.305Z,4.66
2023-01-07T08:36:58.080Z,4.74
2023-01-07T08:39:27.437Z,4.80
2023-01-07T08:41:57.045Z,4.86
2023-01-07T08:44:26.131Z,4.94
2023-01-07T08:46:55.300Z,5.00
2023-01-07T08:49:24.073Z,5.09
2023-01-07T08:51:55.249Z,5.13
2023-01-07T08:54:23.940Z,5.20
2023-01-07T08:56:54.906Z,5.27
2023-01-07T08:59:23.588Z,5.28
2023-01-07T09:01:53.624Z,5.24
2023-01-07T09:04:22.811Z,5.21
2023-01-07T09:06:52.604Z,5.18
2023-01-07T09:09:22.060Z,5.17
2023-01-07T09:11:53.004Z,5.17
2023-01-07T09:14:22.117Z,5.20
2023-01-07T09:16:53.035Z,5.18
2023-01-07T09:19:21.987Z,5.24
2023-01-07T09:21:54.255Z,5.31
2023-01-07T09:24:22.872Z,5.37
2023-01-07T09:26:53.401Z,5.40
2023-01-07T09:29:22.122Z,5.46
2023-01-07T09:31:52.973Z,5.46
2023-01-07T09:34:22.324Z,5.54
2023-01-07T09:36:52.452Z,5.63
2023-01-07T09:39:21.278Z,5.62
2023-01-07T09:41:58.400Z,5.65
2023-01-07T09:44:41.439Z,5.71
2023-01-07T09:47:17.214Z,5.77
2023-01-07T09:49:50.401Z,5.79
2023-01-07T09:52:31.380Z,5.83
2023-01-07T09:55:07.844Z,5.93
2023-01-07T09:57:37.122Z,6.02
2023-01-07T10:00:17.062Z,6.10
2023-01-07T10:03:04.209Z,6.14
2023-01-07T10:05:39.418Z,6.17
2023-01-07T10:08:29.858Z,6.19
2023-01-07T10:11:15.396Z,6.22
2023-01-07T10:14:07.538Z,6.24
2023-01-07T10:16:47.585Z,6.28
2023-01-07T10:19:33.019Z,6.20
2023-01-07T10:22:16.931Z,6.12
2023-01-07T10:24:56.966Z,6.07
2023-01-07T10:27:35.493Z,6.04
2023-01-07T10:30:12.889Z,6.04
2023-01-07T10:32:43.629Z,6.10
2023-01-07T10:35:20.296Z,6.24
2023-01-07T10:37:52.658Z,6.38
2023-01-07T10:40:37.354Z,6.49
2023-01-07T10:43:20.152Z,6.64
2023-01-07T10:46:15.164Z,6.72
2023-01-07T10:49:11.158Z,6.81
2023-01-07T10:52:00.356Z,7.11
2023-01-07T10:54:49.835Z,7.40
2023-01-07T10:57:24.842Z,7.59
2023-01-07T11:00:02.367Z,7.74
2023-01-07T11:02:32.658Z,7.93
2023-01-07T11:05:01.979Z,8.10
2023-01-07T11:07:42.911Z,8.28
2023-01-07T11:10:21.495Z,8.35
2023-01-07T11:12:54.295Z,8.31
2023-01-07T11:15:28.345Z,8.28
2023-01-07T11:18:00.858Z,8.29
2023-01-07T11:20:50.374Z,8.26
2023-01-07T11:23:30.458Z,8.28
2023-01-07T11:26:25.258Z,8.29
2023-01-07T11:29:13.916Z,8.27
2023-01-07T11:32:00.068Z,8.22
2023-01-07T11:34:36.278Z,8.17
2023-01-07T11:37:05.683Z,8.12
2023-01-07T11:39:36.651Z,8.12
2023-01-07T11:42:31.420Z,8.09
2023-01-07T11:45:13.530Z,8.00
2023-01-07T11:47:56.951Z,7.96
2023-01-07T11:50:36.644Z,7.91
2023-01-07T11:53:22.369Z,7.88
2023-01-07T11:56:00.306Z,7.88
2023-01-07T11:58:31.602Z,7.88
2023-01-07T12:01:27.946Z,7.86
2023-01-07T12:04:19.969Z,7.82
2023-01-07T12:06:52.378Z,7.80
2023-01-07T12:09:35.352Z,7.80
2023-01-07T12:12:33.839Z,7.80
2023-01-07T12:15:06.306Z,7.80
2023-01-07T12:17:38.724Z,7.87
2023-01-07T12:20:38.735Z,7.91
2023-01-07T12:23:27.221Z,7.90
2023-01-07T12:26:05.594Z,7.88
2023-01-07T12:29:01.786Z,7.80
2023-01-07T12:31:43.867Z,7.72
2023-01-07T12:34:30.519Z,7.63
2023-01-07T12:37:03.747Z,7.53
2023-01-07T12:39:39.182Z,7.47
2023-01-07T12:42:16.773Z,7.43
2023-01-07T12:44:56.164Z,7.42
2023-01-07T12:47:34.786Z,7.43
2023-01-07T12:50:13.540Z,7.44
2023-01-07T12:52:44.400Z,7.46
2023-01-07T12:55:21.166Z,7.48
2023-01-07T12:58:04.879Z,7.48
2023-01-07T13:00:41.267Z,7.43
2023-01-07T13:03:24.799Z,7.30
2023-01-07T13:05:59.624Z,7.17
2023-01-07T13:08:43.174Z,7.07
2023-01-07T13:11:40.532Z,6.99
2023-01-07T13:14:19.045Z,6.89
2023-01-07T13:16:49.061Z,6.81
2023-01-07T13:19:18.135Z,6.75
2023-01-07T13:21:52.005Z,6.68
2023-01-07T13:24:54.667Z,6.59
2023-01-07T13:27:46.542Z,6.49
2023-01-07T13:30:38.045Z,6.38
2023-01-07T13:33:19.477Z,6.28
2023-01-07T13:36:08.297Z,6.21
2023-01-07T13:39:10.076Z,6.17
2023-01-07T13:42:06.209Z,6.10
2023-01-07T13:44:59.597Z,6.01
2023-01-07T13:47:41.917Z,5.91
2023-01-07T13:50:21.728Z,5.83
2023-01-07T13:53:02.743Z,5.77
2023-01-07T13:55:39.612Z,5.77
2023-01-07T13:58:48.496Z,5.77
2023-01-07T14:01:20.894Z,5.75
2023-01-07T14:04:22.159Z,5.73
2023-01-07T14:06:56.148Z,5.68
2023-01-07T14:09:39.484Z,5.63
2023-01-07T14:13:06.638Z,5.59
2023-01-07T14:16:01.469Z,5.54
2023-01-07T14:19:02.079Z,5.45
2023-01-07T14:21:43.668Z,5.37
2023-01-07T14:24:37.157Z,5.34
2023-01-07T14:27:32.032Z,5.34
2023-01-07T14:30:20.213Z,5.33
2023-01-07T14:33:03.538Z,5.33
2023-01-07T14:35:41.070Z,5.32
2023-01-07T14:38:42.203Z,5.32
2023-01-07T14:41:17.613Z,5.33
2023-01-07T14:44:02.171Z,5.33
2023-01-07T14:46:58.155Z,5.32
2023-01-07T14:49:55.157Z,5.28
2023-01-07T14:52:49.513Z,5.27
2023-01-07T14:55:39.114Z,5.25
2023-01-07T14:58:46.176Z,5.25
2023-01-07T15:01:40.493Z,5.26
2023-01-07T15:05:01.373Z,5.28
2023-01-07T15:07:36.317Z,5.36
2023-01-07T15:10:37.789Z,5.37
2023-01-07T15:13:30.218Z,5.40
2023-01-07T15:16:05.358Z,5.39
2023-01-07T15:18:45.857Z,5.37
2023-01-07T15:21:24.014Z,5.33
2023-01-07T15:24:02.939Z,5.30
2023-01-07T15:26:41.485Z,5.23
2023-01-07T15:29:19.815Z,5.18
2023-01-07T15:31:53.285Z,5.19
2023-01-07T15:34:27.216Z,5.25
2023-01-07T15:36:57.289Z,5.22
2023-01-07T15:39:32.315Z,5.23
2023-01-07T15:42:03.056Z,5.29
2023-01-07T15:44:40.884Z,5.37
2023-01-07T15:47:34.674Z,5.41
2023-01-07T15:50:23.435Z,5.39
2023-01-07T15:52:57.574Z,5.31
2023-01-07T15:55:30.455Z,5.32
2023-01-07T15:58:03.408Z,5.39
2023-01-07T16:00:34.817Z,5.43
2023-01-07T16:03:06.441Z,5.47
2023-01-07T16:05:39.269Z,5.46
2023-01-07T16:08:17.663Z,5.41
2023-01-07T16:11:00.652Z,5.36
2023-01-07T16:13:31.165Z,5.31
2023-01-07T16:16:03.013Z,5.28
2023-01-07T16:18:32.755Z,5.27
2023-01-07T16:21:07.821Z,5.25
2023-01-07T16:23:38.182Z,5.23
2023-01-07T16:26:13.086Z,5.20
2023-01-07T16:28:46.580Z,5.18
2023-01-07T16:31:20.927Z,5.17
2023-01-07T16:33:55.820Z,5.16
2023-01-07T16:36:29.750Z,5.15
2023-01-07T16:39:13.991Z,5.14
2023-01-07T16:41:48.477Z,5.11
2023-01-07T16:44:58.936Z,5.10
2023-01-07T16:47:29.589Z,5.06
2023-01-07T16:50:19.388Z,5.03
2023-01-07T16:52:55.445Z,5.02
2023-01-07T16:55:46.626Z,5.03
2023-01-07T16:58:37.366Z,5.04
2023-01-07T17:01:10.507Z,5.06
2023-01-07T17:03:53.807Z,5.09
2023-01-07T17:06:30.279Z,5.09
2023-01-07T17:09:00.162Z,5.07
2023-01-07T17:11:37.847Z,5.10
2023-01-07T17:14:47.406Z,5.09
2023-01-07T17:17:30.862Z,5.01
2023-01-07T17:20:18.585Z,4.97
2023-01-07T17:22:49.296Z,4.99
2023-01-07T17:25:24.644Z,4.98
2023-01-07T17:27:58.884Z,5.00
2023-01-07T17:30:41.339Z,5.01
2023-01-07T17:33:15.382Z,5.05
2023-01-07T17:35:50.391Z,5.10
2023-01-07T17:38:21.572Z,5.12
2023-01-07T17:41:08.353Z,5.12
2023-01-07T17:43:37.726Z,5.13
2023-01-07T17:46:11.103Z,5.14
2023-01-07T17:48:40.534Z,5.15
2023-01-07T17:51:11.908Z,5.16
2023-01-07T17:53:46.820Z,5.16
2023-01-07T17:56:17.311Z,5.17
2023-01-07T17:58:48.912Z,5.17
2023-01-07T18:01:21.100Z,5.19
2023-01-07T18:03:53.590Z,5.24
2023-01-07T18:06:24.394Z,5.28
2023-01-07T18:08:56.726Z,5.27
2023-01-07T18:11:46.855Z,5.23
2023-01-07T18:14:21.784Z,5.18
2023-01-07T18:16:54.456Z,5.15
2023-01-07T18:19:23.994Z,5.13
2023-01-07T18:21:56.165Z,5.13
2023-01-07T18:24:30.503Z,5.12
2023-01-07T18:27:02.314Z,5.11
2023-01-07T18:29:35.107Z,5.10
2023-01-07T18:32:09.352Z,5.11
2023-01-07T18:34:40.465Z,5.12
2023-01-07T18:37:15.300Z,5.14
2023-01-07T18:39:54.361Z,5.17
2023-01-07T18:42:29.767Z,5.19
2023-01-07T18:44:59.190Z,5.20
2023-01-07T18:47:29.084Z,5.18
2023-01-07T18:50:01.701Z,5.15
2023-01-07T18:52:33.281Z,5.10
2023-01-07T18:55:03.144Z,5.06
2023-01-07T18:57:32.197Z,5.05
2023-01-07T19:00:01.868Z,5.03
2023-01-07T19:02:31.615Z,5.04
2023-01-07T19:05:04.066Z,5.03
2023-01-07T19:07:37.319Z,5.05
2023-01-07T19:10:08.187Z,5.08
2023-01-07T19:12:39.050Z,5.08
2023-01-07T19:15:11.827Z,5.10
2023-01-07T19:17:43.173Z,5.12
2023-01-07T19:20:14.877Z,5.14
2023-01-07T19:22:46.947Z,5.13
2023-01-07T19:25:19.868Z,5.13
2023-01-07T19:27:53.434Z,5.11
2023-01-07T19:30:23.208Z,5.09
2023-01-07T19:32:54.028Z,5.07
2023-01-07T19:35:23.281Z,5.06
2023-01-07T19:37:54.124Z,5.03
2023-01-07T19:40:24.052Z,5.00
2023-01-07T19:42:56.419Z,4.98
2023-01-07T19:45:25.650Z,4.97
2023-01-07T19:47:55.049Z,4.97
2023-01-07T19:50:28.021Z,4.98
2023-01-07T19:53:01.237Z,4.96
2023-01-07T19:55:34.296Z,4.96
2023-01-07T19:58:03.974Z,4.98
2023-01-07T20:00:42.462Z,4.98
2023-01-07T20:03:12.686Z,4.94
2023-01-07T20:05:44.747Z,4.89
2023-01-07T20:08:40.659Z,4.86
2023-01-07T20:11:17.743Z,4.82
2023-01-07T20:13:48.857Z,4.81
2023-01-07T20:16:25.501Z,4.78
2023-01-07T20:18:56.497Z,4.76
2023-01-07T20:21:28.442Z,4.75
2023-01-07T20:23:58.617Z,4.75
2023-01-07T20:26:34.343Z,4.75
2023-01-07T20:29:05.598Z,4.73
2023-01-07T20:31:38.040Z,4.70
2023-01-07T20:34:15.511Z,4.64
2023-01-07T20:36:47.525Z,4.61
2023-01-07T20:39:16.595Z,4.57
2023-01-07T20:41:46.536Z,4.56
2023-01-07T20:44:17.757Z,4.57
2023-01-07T20:46:48.229Z,4.58
2023-01-07T20:49:17.436Z,4.59
2023-01-07T20:51:51.980Z,4.62
2023-01-07T20:54:24.559Z,4.66
2023-01-07T20:56:55.437Z,4.68
2023-01-07T20:59:24.861Z,4.72
2023-01-07T21:02:00.769Z,4.75
2023-01-07T21:04:31.359Z,4.77
2023-01-07T21:07:00.470Z,4.78
2023-01-07T21:09:33.268Z,4.78
2023-01-07T21:12:04.401Z,4.80
2023-01-07T21:14:33.231Z,4.80
2023-01-07T21:17:03.205Z,4.79
2023-01-07T21:19:32.948Z,4.79
2023-01-07T21:22:01.779Z,4.82
2023-01-07T21:24:32.087Z,4.84
2023-01-07T21:27:02.840Z,4.83
2023-01-07T21:29:31.984Z,4.82
2023-01-07T21:32:03.814Z,4.84
2023-01-07T21:34:33.037Z,4.84
2023-01-07T21:37:01.831Z,4.84
2023-01-07T21:39:30.608Z,4.82
2023-01-07T21:41:59.447Z,4.79
2023-01-07T21:44:30.068Z,4.77
2023-01-07T21:46:59.435Z,4.75
2023-01-07T21:49:28.600Z,4.74
2023-01-07T21:51:57.386Z,4.74
2023-01-07T21:54:28.831Z,4.72
2023-01-07T21:56:57.832Z,4.72
2023-01-07T21:59:27.679Z,4.72
2023-01-07T22:01:59.129Z,4.72
2023-01-07T22:04:29.702Z,4.73
2023-01-07T22:06:58.707Z,4.72
2023-01-07T22:09:28.664Z,4.72
2023-01-07T22:11:57.667Z,4.73
2023-01-07T22:14:29.351Z,4.73
2023-01-07T22:16:58.321Z,4.70
2023-01-07T22:19:28.531Z,4.69
2023-01-07T22:21:57.862Z,4.68
2023-01-07T22:24:28.134Z,4.65
2023-01-07T22:26:58.386Z,4.62
2023-01-07T22:29:33.022Z,4.59
2023-01-07T22:32:02.827Z,4.59
2023-01-07T22:34:32.933Z,4.59
2023-01-07T22:37:09.910Z,4.60
2023-01-07T22:39:52.176Z,4.59
2023-01-07T22:42:34.581Z,4.58
2023-01-07T22:45:15.361Z,4.59
2023-01-07T22:47:49.048Z,4.60
2023-01-07T22:50:19.180Z,4.63
2023-01-07T22:52:48.252Z,4.65
2023-01-07T22:55:18.051Z,4.66
2023-01-07T22:57:47.279Z,4.69
2023-01-07T23:00:37.677Z,4.70
2023-01-07T23:03:07.141Z,4.69
2023-01-07T23:05:37.447Z,4.66
2023-01-07T23:08:07.885Z,4.63
2023-01-07T23:10:37.701Z,4.61
2023-01-07T23:13:06.961Z,4.58
2023-01-07T23:15:38.759Z,4.56
2023-01-07T23:18:11.639Z,4.54
2023-01-07T23:20:43.005Z,4.54
2023-01-07T23:23:12.757Z,4.55
2023-01-07T23:25:46.627Z,4.56
2023-01-07T23:28:16.648Z,4.58
2023-01-07T23:30:46.255Z,4.60
2023-01-07T23:33:15.009Z,4.61
2023-01-07T23:35:43.735Z,4.61
2023-01-07T23:38:12.457Z,4.60
2023-01-07T23:40:43.852Z,4.61
2023-01-07T23:43:12.851Z,4.63
2023-01-07T23:45:41.912Z,4.65
2023-01-07T23:48:10.759Z,4.63
2023-01-07T23:50:40.153Z,4.60
2023-01-07T23:53:08.806Z,4.55
2023-01-07T23:55:39.080Z,4.50
2023-01-07T23:58:10.411Z,4.49
